Time;durP1;ratioP1;P1;durP2;ratioP2;P2;SDS_P1;SDS_P2;PMS_P1;PMS_P2;Temp;Humidity;BMP_temperature;BMP_pressure;BME280_temperature;BME280_humidity;BME280_pressure;Samples;Min_cycle;Max_cycle;Signal;HPM_P1;HPM_P2
2022/08/13 00:03:57;;;;;;;10.87;9.97;;;18.10;32.10;;;;;;2616789;54;20511;-80
2022/08/13 00:09:44;;;;;;;9.23;8.33;;;18.00;30.30;;;;;;2616868;54;20415;-80
2022/08/13 00:18:55;;;;;;;9.57;8.70;;;17.80;31.30;;;;;;2616944;54;20411;-81
2022/08/13 00:24:45;;;;;;;12.63;8.97;;;17.80;30.00;;;;;;2616598;54;20432;-80
2022/08/13 00:30:34;;;;;;;9.57;7.97;;;17.90;33.70;;;;;;2616667;54;20398;-81
2022/08/13 00:36:23;;;;;;;9.23;8.53;;;17.60;37.10;;;;;;2616724;54;20373;-80
2022/08/13 00:42:10;;;;;;;8.60;7.90;;;17.40;43.40;;;;;;2616736;54;20454;-80
2022/08/13 00:44:38;;;;;;;11.20;10.20;;;17.40;43.30;;;;;;2616031;54;20457;-80
2022/08/13 00:53:16;;;;;;;10.47;8.00;;;17.20;44.80;;;;;;2616775;54;20384;-81
2022/08/13 01:05:13;;;;;;;9.17;8.37;;;17.10;51.90;;;;;;2617186;54;20855;-80
2022/08/13 01:17:47;;;;;;;9.93;9.13;;;17.00;59.10;;;;;;2617159;54;20495;-79
2022/08/13 01:23:35;;;;;;;8.57;7.97;;;17.10;53.20;;;;;;2616979;54;20483;-80
2022/08/13 01:29:24;;;;;;;9.77;8.50;;;17.10;51.50;;;;;;2617128;54;20409;-79
2022/08/13 01:38:34;;;;;;;10.10;9.10;;;16.70;55.70;;;;;;2617429;54;20397;-79
2022/08/13 01:44:25;;;;;;;10.00;8.70;;;16.70;60.00;;;;;;2617328;54;20366;-80
2022/08/13 01:56:00;;;;;;;8.43;7.60;;;16.30;68.30;;;;;;2617179;54;20377;-80
2022/08/13 02:01:47;;;;;;;9.57;8.70;;;16.50;82.00;;;;;;2617815;39;20798;-80
2022/08/13 02:07:36;;;;;;;8.73;7.80;;;16.30;85.20;;;;;;2617200;54;20263;-80
2022/08/13 02:13:29;;;;;;;9.37;8.57;;;16.40;88.20;;;;;;2617125;54;20387;-80
2022/08/13 02:22:40;;;;;;;10.40;8.30;;;16.10;86.30;;;;;;2617430;54;20427;-80
2022/08/13 02:28:32;;;;;;;8.07;7.30;;;16.10;88.00;;;;;;2617500;54;20366;-80
2022/08/13 02:34:19;;;;;;;7.90;7.10;;;16.00;90.50;;;;;;2617011;54;20378;-80
2022/08/13 02:46:16;;;;;;;9.43;8.63;;;15.70;94.10;;;;;;2619068;39;20783;-80
2022/08/13 02:52:04;;;;;;;7.83;7.13;;;15.80;95.30;;;;;;2617216;54;20974;-80
2022/08/13 02:57:52;;;;;;;8.57;7.50;;;15.80;96.70;;;;;;2617181;54;21493;-80
2022/08/13 03:03:40;;;;;;;9.30;7.90;;;15.70;99.90;;;;;;2617052;54;20428;-80
2022/08/13 03:09:28;;;;;;;9.47;8.47;;;15.60;99.90;;;;;;2617061;54;20963;-80
2022/08/13 03:15:17;;;;;;;22.00;8.00;;;15.70;99.90;;;;;;2617201;54;20939;-80
2022/08/13 03:21:04;;;;;;;7.70;7.00;;;15.80;99.90;;;;;;2617062;54;20375;-81
2022/08/13 03:26:52;;;;;;;8.73;8.07;;;15.60;99.90;;;;;;2616809;54;20647;-80
2022/08/13 03:32:44;;;;;;;7.80;7.10;;;15.60;99.90;;;;;;2617149;54;20383;-80
2022/08/13 03:38:31;;;;;;;8.80;7.77;;;15.50;99.90;;;;;;2616935;54;20399;-80
2022/08/13 03:44:18;;;;;;;7.30;6.70;;;15.40;99.90;;;;;;2617088;39;21153;-80
2022/08/13 03:47:18;;;;;;;7.03;6.30;;;15.40;99.90;;;;;;2617149;54;20382;-80
2022/08/13 03:49:44;;;;;;;10.53;7.27;;;15.30;99.90;;;;;;2618353;39;20534;-80
2022/08/13 03:55:33;;;;;;;7.90;7.20;;;15.10;99.90;;;;;;2618272;54;20365;-80
2022/08/13 04:01:20;;;;;;;7.90;7.30;;;15.10;99.90;;;;;;2616554;54;20961;-80
2022/08/13 04:07:08;;;;;;;8.17;6.97;;;15.10;99.90;;;;;;2616887;54;20134;-80
2022/08/13 04:16:20;;;;;;;8.67;7.90;;;15.00;99.90;;;;;;2617270;39;20784;-80
2022/08/13 04:22:13;;;;;;;7.03;6.43;;;15.10;99.90;;;;;;2617023;39;20803;-80
2022/08/13 04:28:01;;;;;;;7.60;6.90;;;15.10;99.90;;;;;;2617078;31;20820;-80
2022/08/13 04:33:49;;;;;;;7.40;6.80;;;15.10;99.90;;;;;;2617307;47;20994;-80
2022/08/13 04:42:57;;;;;;;11.53;6.30;;;15.20;99.90;;;;;;2617720;54;20423;-80
2022/08/13 04:52:46;;;;;;;6.83;6.33;;;15.40;99.90;;;;;;2617379;54;20386;-81
2022/08/13 04:58:36;;;;;;;8.03;7.20;;;15.60;99.90;;;;;;2618960;54;20365;-80
2022/08/13 05:04:23;;;;;;;8.10;6.93;;;15.70;99.90;;;;;;2618518;54;20373;-79
2022/08/13 05:10:11;;;;;;;8.50;6.83;;;16.10;99.90;;;;;;2619147;39;20540;-80
2022/08/13 05:16:01;;;;;;;9.33;6.37;;;16.50;99.90;;;;;;2619097;54;20129;-80
2022/08/13 05:21:49;;;;;;;7.80;7.10;;;17.00;96.30;;;;;;2617448;54;20427;-80
2022/08/13 05:27:36;;;;;;;10.20;6.63;;;17.50;92.00;;;;;;2617049;54;20176;-80
2022/08/13 05:36:46;;;;;;;8.43;7.70;;;18.50;71.40;;;;;;2617517;54;20381;-81
2022/08/13 05:42:39;;;;;;;9.00;7.73;;;20.70;32.40;;;;;;2617169;54;20369;-81
2022/08/13 05:48:28;;;;;;;9.23;8.17;;;21.70;21.20;;;;;;2616765;54;20394;-81
2022/08/13 05:54:16;;;;;;;7.50;7.10;;;22.30;12.50;;;;;;2617405;54;20513;-81
2022/08/13 06:03:46;;;;;;;8.27;7.57;;;23.20;6.90;;;;;;2617439;54;20407;-81
2022/08/13 06:09:33;;;;;;;8.27;7.60;;;23.60;2.40;;;;;;2617138;54;20393;-81
2022/08/13 06:15:22;;;;;;;15.00;7.97;;;24.00;1.00;;;;;;2617220;54;20118;-81
2022/08/13 06:21:12;;;;;;;8.00;7.37;;;24.40;1.00;;;;;;2617441;54;20379;-81
2022/08/13 06:27:04;;;;;;;8.23;7.53;;;24.80;1.00;;;;;;2618351;54;20981;-82
2022/08/13 06:33:02;;;;;;;7.93;7.33;;;24.70;1.00;;;;;;2618455;54;20477;-82
2022/08/13 06:38:50;;;;;;;9.70;7.67;;;24.70;1.00;;;;;;2617190;54;20363;-82
2022/08/13 06:44:42;;;;;;;7.47;6.77;;;25.40;1.00;;;;;;2617228;46;20376;-82
2022/08/13 06:53:53;;;;;;;8.60;6.90;;;26.60;1.00;;;;;;2616992;54;20551;-80
2022/08/13 06:59:41;;;;;;;7.30;6.80;;;26.60;1.00;;;;;;2616830;46;20877;-81
2022/08/13 07:09:37;;;;;;;7.40;6.90;;;27.30;1.00;;;;;;2616981;54;20371;-81
2022/08/13 07:15:25;;;;;;;10.27;7.00;;;27.60;1.00;;;;;;2616990;54;20405;-81
2022/08/13 07:21:19;;;;;;;7.23;6.53;;;27.80;1.00;;;;;;2616696;54;20788;-80
2022/08/13 07:27:07;;;;;;;6.50;5.93;;;27.60;1.00;;;;;;2617389;39;20803;-81
2022/08/13 07:36:15;;;;;;;6.53;5.93;;;28.30;1.00;;;;;;2617177;54;20496;-81
2022/08/13 07:42:05;;;;;;;6.60;5.83;;;28.50;1.00;;;;;;2617775;31;20608;-81
2022/08/13 07:47:54;;;;;;;7.53;5.63;;;28.70;1.00;;;;;;2618472;54;20358;-81
2022/08/13 07:53:42;;;;;;;7.30;6.73;;;29.10;1.00;;;;;;2618210;54;20400;-82
2022/08/13 07:59:31;;;;;;;6.20;5.90;;;29.10;1.00;;;;;;2617959;46;20180;-81
2022/08/13 08:05:23;;;;;;;6.00;5.70;;;28.50;1.00;;;;;;2618158;39;21397;-82
2022/08/13 08:12:32;;;;;;;6.33;5.93;;;29.30;1.00;;;;;;2617882;54;20371;-81
2022/08/13 08:17:26;;;;;;;6.10;5.70;;;30.80;1.00;;;;;;2617450;54;20386;-81
2022/08/13 08:23:14;;;;;;;5.90;5.50;;;29.80;1.00;;;;;;2618184;31;20886;-82
2022/08/13 08:29:09;;;;;;;5.57;5.17;;;30.50;1.00;;;;;;2617583;54;20374;-81
2022/08/13 08:34:56;;;;;;;5.40;5.10;;;31.10;1.00;;;;;;2617141;54;20406;-82
2022/08/13 08:46:56;;;;;;;6.30;6.00;;;30.50;1.00;;;;;;2617876;39;20726;-82
2022/08/13 08:49:43;;;;;;;5.47;5.17;;;30.80;1.00;;;;;;2617298;54;20980;-82
2022/08/13 08:52:09;;;;;;;6.07;5.60;;;30.40;1.00;;;;;;2617462;46;20421;-82
2022/08/13 08:57:57;;;;;;;6.10;5.53;;;30.50;1.00;;;;;;2617151;54;20392;-82
2022/08/13 09:03:46;;;;;;;5.07;4.80;;;31.10;1.00;;;;;;2618807;39;20546;-83
2022/08/13 09:09:33;;;;;;;6.63;5.77;;;31.00;1.00;;;;;;2617104;54;20386;-83
2022/08/13 09:15:23;;;;;;;6.90;6.40;;;31.30;1.00;;;;;;2617404;54;20118;-83
2022/08/13 09:21:10;;;;;;;5.30;5.00;;;31.90;1.00;;;;;;2617176;54;20384;-82
2022/08/13 09:30:41;;;;;;;6.47;5.90;;;32.00;1.00;;;;;;2617136;54;20406;-82
2022/08/13 09:36:31;;;;;;;6.20;5.80;;;31.40;1.00;;;;;;2617093;54;20368;-81
2022/08/13 09:42:32;;;;;;;5.73;5.43;;;32.00;1.00;;;;;;2617508;54;20383;-82
2022/08/13 09:51:41;;;;;;;5.70;5.40;;;33.00;1.00;;;;;;2616806;54;20615;-82
2022/08/13 09:54:40;;;;;;;5.27;4.87;;;32.30;1.00;;;;;;2616485;47;20427;-82
2022/08/13 09:57:06;;;;;;;5.33;5.03;;;32.40;1.00;;;;;;2617011;46;20149;-81
2022/08/13 10:02:59;;;;;;;5.50;5.03;;;32.30;1.00;;;;;;2617335;54;20364;-81
2022/08/13 10:08:46;;;;;;;6.00;5.60;;;31.90;1.00;;;;;;2617508;54;20413;-83
2022/08/13 10:14:34;;;;;;;5.90;5.03;;;32.80;1.00;;;;;;2617138;54;20402;-82
2022/08/13 10:20:40;;;;;;;5.43;5.00;;;32.10;1.00;;;;;;2617385;54;20378;-82
2022/08/13 10:29:49;;;;;;;4.83;4.53;;;32.70;1.00;;;;;;2617164;54;20427;-83
2022/08/13 10:35:37;;;;;;;4.90;4.60;;;33.30;1.00;;;;;;2617575;39;20534;-82
2022/08/13 10:41:24;;;;;;;6.20;4.73;;;31.80;1.00;;;;;;2617736;54;20366;-82
2022/08/13 10:47:12;;;;;;;5.40;5.10;;;32.40;1.00;;;;;;2618503;39;20737;-83
2022/08/13 10:53:00;;;;;;;5.30;5.07;;;33.40;1.00;;;;;;2618582;54;20145;-82
2022/08/13 11:02:15;;;;;;;5.63;5.23;;;32.80;1.00;;;;;;2618753;54;20391;-83
2022/08/13 11:08:03;;;;;;;6.13;5.67;;;33.30;1.00;;;;;;2618678;54;20410;-82
2022/08/13 11:13:52;;;;;;;5.80;5.50;;;32.80;1.00;;;;;;2618963;54;20644;-83
2022/08/13 11:19:45;;;;;;;5.73;5.33;;;32.30;1.00;;;;;;2618317;54;20359;-83
2022/08/13 11:25:32;;;;;;;6.00;5.67;;;33.90;1.00;;;;;;2618593;54;20379;-83
2022/08/13 11:31:20;;;;;;;5.00;4.60;;;33.30;1.00;;;;;;2619054;54;20166;-82
2022/08/13 11:37:08;;;;;;;5.27;5.00;;;33.70;1.00;;;;;;2618098;54;20700;-82
2022/08/13 11:42:55;;;;;;;5.23;5.03;;;34.10;1.00;;;;;;2617535;54;20139;-84
2022/08/13 11:52:03;;;;;;;6.03;5.63;;;33.50;1.00;;;;;;2617462;54;20362;-82
2022/08/13 11:58:01;;;;;;;5.07;4.60;;;33.40;1.00;;;;;;2617882;54;20119;-82
2022/08/13 12:03:49;;;;;;;5.87;5.40;;;34.10;1.00;;;;;;2617475;54;20383;-81
2022/08/13 12:09:37;;;;;;;5.20;4.80;;;34.30;1.00;;;;;;2618148;54;20694;-85
2022/08/13 12:15:25;;;;;;;4.90;4.67;;;34.00;1.00;;;;;;2618567;54;21018;-80
2022/08/13 12:21:13;;;;;;;6.43;4.90;;;34.00;1.00;;;;;;2619082;54;20131;-83
2022/08/13 12:27:01;;;;;;;5.50;5.00;;;34.50;1.00;;;;;;2618183;54;20136;-84
2022/08/13 12:32:47;;;;;;;6.00;5.70;;;33.80;1.00;;;;;;2616629;54;20389;-83
2022/08/13 12:38:34;;;;;;;5.83;5.40;;;33.40;1.00;;;;;;2617245;39;20537;-83
2022/08/13 12:44:21;;;;;;;5.37;5.17;;;34.30;1.00;;;;;;2617028;54;20133;-84
2022/08/13 12:50:09;;;;;;;5.40;5.20;;;33.80;1.00;;;;;;2616760;54;20136;-83
2022/08/13 12:55:57;;;;;;;5.47;5.13;;;34.10;1.00;;;;;;2616558;54;20151;-83
2022/08/13 12:58:26;;;;;;;5.53;5.23;;;34.30;1.00;;;;;;2616599;47;20384;-83
2022/08/13 13:00:54;;;;;;;6.00;5.60;;;34.40;1.00;;;;;;2617602;54;20176;-82
2022/08/13 13:06:42;;;;;;;6.10;5.57;;;34.50;1.00;;;;;;2618268;39;20855;-83
2022/08/13 13:12:29;;;;;;;6.97;5.43;;;33.80;1.00;;;;;;2617657;54;20400;-82
2022/08/13 13:18:18;;;;;;;5.40;5.10;;;34.80;1.00;;;;;;2617404;54;20664;-81
2022/08/13 13:24:10;;;;;;;5.63;5.33;;;34.30;1.00;;;;;;2617418;54;20406;-83
2022/08/13 13:29:57;;;;;;;6.30;5.27;;;34.40;1.00;;;;;;2618630;54;20928;-82
2022/08/13 13:35:47;;;;;;;7.93;6.07;;;33.90;1.00;;;;;;2618947;54;20157;-82
2022/08/13 13:41:34;;;;;;;5.33;5.00;;;34.70;1.00;;;;;;2618488;54;20356;-81
2022/08/13 13:47:22;;;;;;;5.27;5.07;;;34.60;1.00;;;;;;2617392;54;20144;-81
2022/08/13 13:53:11;;;;;;;6.03;5.67;;;34.10;1.00;;;;;;2617375;54;20479;-80
2022/08/13 13:58:58;;;;;;;5.40;5.00;;;33.80;1.00;;;;;;2616768;39;20470;-81
2022/08/13 14:04:46;;;;;;;6.80;6.17;;;34.40;1.00;;;;;;2616970;54;20121;-81
2022/08/13 14:10:34;;;;;;;6.83;6.10;;;33.80;1.00;;;;;;2616535;54;20150;-81
2022/08/13 14:16:21;;;;;;;7.73;6.53;;;33.30;1.00;;;;;;2617197;54;20363;-81
2022/08/13 14:22:08;;;;;;;6.00;5.63;;;34.20;1.00;;;;;;2617155;54;20186;-80
2022/08/13 14:25:11;;;;;;;6.17;5.87;;;34.30;1.00;;;;;;2617244;54;20391;-81
2022/08/13 14:27:42;;;;;;;6.63;5.97;;;34.00;1.00;;;;;;2617074;54;20384;-80
2022/08/13 14:33:31;;;;;;;6.10;5.80;;;34.70;1.00;;;;;;2617269;54;20362;-81
2022/08/13 14:39:18;;;;;;;7.10;6.57;;;34.20;1.00;;;;;;2617128;54;20447;-81
2022/08/13 14:51:14;;;;;;;6.70;6.10;;;34.80;1.00;;;;;;2617332;54;20386;-81
2022/08/13 14:57:01;;;;;;;7.03;6.00;;;34.50;1.00;;;;;;2616956;54;20375;-80
2022/08/13 15:02:49;;;;;;;6.00;5.60;;;35.00;1.00;;;;;;2616293;31;20693;-82
2022/08/13 15:08:38;;;;;;;8.10;5.70;;;35.50;1.00;;;;;;2618473;54;20376;-81
2022/08/13 15:14:26;;;;;;;5.33;5.10;;;35.50;1.00;;;;;;2617030;54;20408;-79
2022/08/13 15:20:21;;;;;;;6.13;5.73;;;35.80;1.00;;;;;;2616974;54;20492;-81
2022/08/13 15:26:28;;;;;;;6.30;5.90;;;36.00;1.00;;;;;;2616604;54;20403;-82
2022/08/13 15:32:16;;;;;;;6.60;6.20;;;35.50;1.00;;;;;;2617063;54;20288;-81
2022/08/13 15:38:09;;;;;;;6.37;6.07;;;35.30;1.00;;;;;;2616768;54;20388;-81
2022/08/13 15:43:56;;;;;;;6.17;5.77;;;35.40;1.00;;;;;;2616595;54;20380;-81
2022/08/13 15:49:46;;;;;;;6.73;6.33;;;35.70;1.00;;;;;;2617142;54;20122;-81
2022/08/13 15:55:34;;;;;;;7.10;6.10;;;36.00;1.00;;;;;;2616682;54;20636;-82
2022/08/13 16:01:21;;;;;;;7.10;6.30;;;36.00;1.00;;;;;;2616836;54;20354;-81
2022/08/13 16:07:10;;;;;;;6.37;6.07;;;36.50;1.00;;;;;;2616986;54;20226;-82
2022/08/13 16:13:01;;;;;;;6.53;5.90;;;35.70;1.00;;;;;;2617374;39;20867;-81
2022/08/13 16:18:48;;;;;;;7.40;6.60;;;36.00;1.00;;;;;;2617144;54;20951;-82
2022/08/13 16:24:35;;;;;;;6.43;6.03;;;35.80;1.00;;;;;;2617324;54;20150;-82
2022/08/13 16:30:27;;;;;;;5.83;5.57;;;36.60;1.00;;;;;;2616985;54;20276;-81
2022/08/13 16:36:14;;;;;;;6.47;6.03;;;36.30;1.00;;;;;;2618451;54;20403;-82
2022/08/13 16:42:02;;;;;;;6.70;6.33;;;35.60;1.00;;;;;;2618636;54;20115;-81
2022/08/13 16:47:52;;;;;;;6.70;6.30;;;35.80;1.00;;;;;;2617508;54;20378;-82
2022/08/13 16:53:39;;;;;;;7.93;7.33;;;35.70;1.00;;;;;;2618202;54;20396;-81
2022/08/13 16:59:27;;;;;;;8.33;7.83;;;35.20;1.00;;;;;;2619656;54;20146;-82
2022/08/13 17:19:01;;;;;;;7.53;6.93;;;30.80;1.00;;;;;;2619053;54;20490;-82
2022/08/13 17:21:30;;;;;;;7.83;7.33;;;30.60;1.00;;;;;;2618903;54;20410;-82
2022/08/13 17:24:00;;;;;;;7.90;7.50;;;30.40;1.00;;;;;;2619212;46;20415;-82
2022/08/13 17:29:48;;;;;;;7.83;7.43;;;30.30;1.00;;;;;;2619773;54;20372;-82
2022/08/13 17:35:36;;;;;;;7.67;7.17;;;30.20;1.00;;;;;;2620278;39;20746;-81
2022/08/13 17:41:24;;;;;;;7.97;7.27;;;30.00;1.00;;;;;;2619990;54;20243;-81
2022/08/13 17:47:12;;;;;;;8.50;8.00;;;29.90;1.00;;;;;;2619830;54;20395;-82
2022/08/13 17:52:59;;;;;;;7.73;7.27;;;29.70;1.00;;;;;;2620603;39;20575;-83
2022/08/13 17:58:48;;;;;;;8.57;7.97;;;29.50;1.00;;;;;;2619756;54;20130;-84
2022/08/13 18:04:35;;;;;;;8.47;7.70;;;29.40;1.00;;;;;;2620087;54;20378;-83
2022/08/13 18:10:23;;;;;;;8.20;7.70;;;29.20;1.00;;;;;;2621138;31;20620;-83
2022/08/13 18:16:10;;;;;;;8.10;7.60;;;29.10;1.00;;;;;;2617779;54;20363;-83
2022/08/13 18:21:58;;;;;;;9.17;8.47;;;29.00;1.00;;;;;;2617300;54;20460;-84
2022/08/13 18:27:45;;;;;;;8.10;7.47;;;28.70;1.00;;;;;;2618138;54;20432;-83
2022/08/13 18:36:54;;;;;;;9.57;8.97;;;28.40;1.00;;;;;;2618400;54;20396;-82
2022/08/13 18:42:42;;;;;;;8.60;8.10;;;28.30;1.00;;;;;;2618660;54;20145;-82
2022/08/13 18:48:30;;;;;;;9.73;9.03;;;28.00;1.00;;;;;;2618411;54;20372;-83
2022/08/13 18:54:18;;;;;;;9.37;8.70;;;27.60;1.00;;;;;;2619371;54;20494;-83
2022/08/13 19:00:12;;;;;;;9.00;8.20;;;27.30;1.00;;;;;;2620030;39;20489;-83
2022/08/13 19:05:59;;;;;;;9.00;8.50;;;27.10;1.00;;;;;;2619690;54;20354;-82
2022/08/13 19:11:52;;;;;;;10.40;9.33;;;26.80;1.00;;;;;;2619126;54;20204;-82
2022/08/13 19:17:52;;;;;;;11.80;10.70;;;26.50;1.00;;;;;;2617667;54;20480;-83
2022/08/13 19:24:34;;;;;;;10.60;9.53;;;26.20;1.00;;;;;;2617354;54;20433;-83
2022/08/13 19:27:01;;;;;;;9.77;9.17;;;26.20;1.00;;;;;;2617515;54;20384;-82
2022/08/13 19:32:50;;;;;;;9.83;9.20;;;26.50;1.00;;;;;;2617700;54;20941;-83
2022/08/13 19:38:38;;;;;;;10.83;10.00;;;26.40;1.00;;;;;;2617916;54;20381;-82
2022/08/13 19:44:25;;;;;;;9.70;8.90;;;26.30;1.00;;;;;;2617816;54;20392;-82
2022/08/13 19:50:14;;;;;;;9.23;8.47;;;26.30;1.00;;;;;;2617578;54;20403;-84
2022/08/13 19:56:02;;;;;;;10.57;9.53;;;26.20;1.00;;;;;;2617493;54;20387;-81
2022/08/13 20:01:49;;;;;;;10.60;9.50;;;26.00;1.00;;;;;;2617412;54;20438;-82
2022/08/13 20:10:58;;;;;;;12.33;10.13;;;25.70;1.00;;;;;;2617438;54;20490;-83
2022/08/13 20:16:50;;;;;;;11.33;10.37;;;25.60;1.00;;;;;;2617848;54;20382;-83
2022/08/13 20:22:39;;;;;;;10.20;9.60;;;25.50;1.00;;;;;;2618077;39;20825;-82
2022/08/13 20:28:27;;;;;;;10.97;10.17;;;25.50;1.00;;;;;;2617995;54;20448;-82
2022/08/13 20:34:14;;;;;;;10.60;9.90;;;25.40;1.00;;;;;;2617567;54;20174;-82
2022/08/13 20:40:03;;;;;;;11.50;10.63;;;25.10;1.00;;;;;;2619469;39;20513;-82
2022/08/13 20:45:51;;;;;;;10.47;9.77;;;24.80;1.00;;;;;;2618936;54;20356;-82
2022/08/13 20:51:38;;;;;;;11.30;10.50;;;24.80;1.00;;;;;;2619052;54;20407;-82
2022/08/13 20:57:26;;;;;;;10.50;9.70;;;24.70;1.00;;;;;;2619006;54;20160;-82
2022/08/13 21:03:15;;;;;;;10.70;9.60;;;24.60;1.00;;;;;;2619231;39;20547;-82
2022/08/13 21:09:03;;;;;;;11.00;10.10;;;24.70;1.00;;;;;;2617102;54;20364;-82
2022/08/13 21:14:50;;;;;;;10.80;10.00;;;24.70;1.00;;;;;;2617474;54;20121;-82
2022/08/13 21:20:38;;;;;;;11.30;10.43;;;24.80;1.00;;;;;;2618526;39;20737;-82
2022/08/13 21:23:18;;;;;;;10.70;9.90;;;24.70;1.00;;;;;;2617582;54;20384;-82
2022/08/13 21:25:45;;;;;;;11.53;10.67;;;24.80;1.00;;;;;;2618689;39;20611;-82
2022/08/13 21:31:33;;;;;;;11.60;10.90;;;24.80;1.00;;;;;;2618219;54;20447;-82
2022/08/13 21:37:21;;;;;;;11.00;10.30;;;24.70;1.00;;;;;;2619102;54;20475;-82
2022/08/13 21:43:08;;;;;;;12.03;11.13;;;24.60;1.00;;;;;;2619434;54;20125;-82
2022/08/13 21:48:57;;;;;;;11.27;10.27;;;24.50;1.00;;;;;;2619478;54;20710;-81
2022/08/13 21:54:45;;;;;;;11.33;10.53;;;24.80;1.00;;;;;;2618286;54;20118;-82
2022/08/13 22:00:33;;;;;;;10.10;9.30;;;24.50;1.00;;;;;;2618188;54;20389;-81
2022/08/13 22:06:21;;;;;;;10.70;9.90;;;24.20;1.00;;;;;;2618687;39;20765;-81
2022/08/13 22:12:09;;;;;;;11.17;10.23;;;23.90;1.00;;;;;;2617751;54;20362;-81
2022/08/13 22:17:56;;;;;;;11.20;10.23;;;23.50;1.10;;;;;;2618445;39;20865;-81
2022/08/13 22:23:43;;;;;;;10.50;9.83;;;23.20;1.20;;;;;;2617829;54;20138;-81
2022/08/13 22:33:33;;;;;;;11.07;10.40;;;22.80;4.00;;;;;;2618274;54;20392;-82
2022/08/13 22:39:21;;;;;;;11.57;10.40;;;22.50;7.60;;;;;;2618676;54;20379;-81
2022/08/13 22:45:11;;;;;;;11.73;10.73;;;22.50;9.20;;;;;;2616985;54;20118;-82
2022/08/13 22:50:58;;;;;;;11.00;10.20;;;22.30;9.60;;;;;;2617303;54;20364;-82
2022/08/13 22:56:45;;;;;;;11.90;10.80;;;22.20;12.60;;;;;;2617455;54;20655;-81
2022/08/13 23:02:33;;;;;;;10.40;9.70;;;21.80;16.00;;;;;;2617289;54;20157;-82
2022/08/13 23:08:23;;;;;;;9.73;9.03;;;21.70;21.10;;;;;;2617423;54;20119;-82
2022/08/13 23:17:33;;;;;;;11.13;10.30;;;21.30;25.30;;;;;;2617346;54;20459;-81
2022/08/13 23:23:20;;;;;;;11.00;10.20;;;21.20;28.60;;;;;;2617634;54;20370;-82
2022/08/13 23:29:07;;;;;;;11.03;10.23;;;21.10;27.80;;;;;;2617085;54;20375;-80
2022/08/13 23:38:17;;;;;;;11.23;10.53;;;20.80;31.50;;;;;;2617599;39;20775;-80
2022/08/13 23:44:06;;;;;;;11.10;10.20;;;20.70;32.30;;;;;;2617251;54;20989;-81
2022/08/13 23:49:54;;;;;;;11.87;9.87;;;20.70;37.80;;;;;;2617171;54;20421;-81
2022/08/13 23:55:42;;;;;;;11.03;10.23;;;20.60;43.20;;;;;;2618602;54;20428;-81
